EW5887 Weather Reports


Display with metric or nautical units.
time (UTC)temp
F
wind
direction
speed
MPH
gust
MPH
rain 1hr
in
rain 24hr
in
rain mn
in
humidity
%
barometer
mb
20180924100654 44 212 15.0 29.0 0.02 0.49 0.46 96 1005.9
20180924095156 43 180 16.0 27.0 0.05 0.48 0.46 97 1005.7
20180924093655 45 187 20.0 31.0 0.08 0.48 0.46 98 1005.2
20180924092150 45 194 28.0 41.0 0.09 0.48 0.46 98 1005.2
20180924090647 46 155 28.0 40.0 0.07 0.46 0.44 98 1004.7
20180924085144 46 171 22.0 41.0 0.06 0.43 0.41 98 1005.1
20180924083639 46 153 24.0 38.0 0.03 0.40 0.38 98 1005.5
20180924082137 45 146 22.0 39.0 0.06 0.39 0.37 98 1006.0
20180924080636 45 158 25.0 38.0 0.08 0.39 0.37 98 1006.7
20180924075130 45 175 23.0 29.0 0.10 0.38 0.35 98 1007.1
20180924073628 44 128 17.0 28.0 0.12 0.36 0.34 98 1007.6
20180924072123 44 145 23.0 34.0 0.12 0.33 0.31 98 1008.1
20180924070620 44 140 19.0 30.0 0.12 0.31 0.28 98 1008.8
20180924065117 44 144 22.0 31.0 0.11 0.28 0.25 98 1009.4
20180924063613 43 163 20.0 33.0 0.09 0.24 0.22 98 1010.1
20180924062112 43 139 14.0 26.0 0.08 0.21 0.19 98 1010.3
20180924060610 44 139 19.0 26.0 0.07 0.20 0.17 98 1010.8
20180924055106 44 141 18.0 24.0 0.05 0.17 0.14 98 1011.3
20180924053607 44 153 12.0 17.0 0.02 0.14 0.12 98 1011.6
20180924052105 44 113 11.0 19.0 0.02 0.13 0.11 98 1012.1
20180924050559 44 140 13.0 22.0 0.02 0.13 0.10 98 1012.7
20180924045054 43 153 14.0 21.0 0.01 0.12 0.09 98 1013.3
20180924043556 43 121 12.0 17.0 0.02 0.12 0.09 98 1013.5
20180924042052 43 140 15.0 21.0 0.01 0.11 0.09 98 1013.9
20180924040644 42 132 12.0 21.0 0.02 0.11 0.09 98 1014.3
20180924035041 42 117 12.0 16.0 0.03 0.11 0.09 97 1014.7
20180924033542 42 145 11.0 15.0 0.04 0.10 0.08 98 1015.1
20180924032035 41 126 11.0 19.0 0.05 0.10 0.08 97 1015.4
20180924030533 41 136 12.0 18.0 0.03 0.09 0.06 97 1015.7
20180924025028 41 134 12.0 19.0 0.02 0.08 0.06 98 1016.2
20180924023524 39 145 11.0 18.0 0.03 0.06 0.04 97 1016.4
20180924022023 39 168 12.0 18.0 0.02 0.06 0.03 97 1016.5
20180924020520 39 133 13.0 17.0 0.02 0.06 0.03 97 1016.9
20180924015020 38 161 7.0 14.0 0.02 0.05 0.02 96 1017.2
20180924013514 39 136 10.0 15.0 0.00 0.03 0.01 97 1017.4
20180924012015 38 122 8.0 10.0 0.01 0.03 0.01 97 1017.7
20180924010508 37 124 5.0 11.0 0.01 0.03 0.01 97 1017.9
20180924005007 36 147 5.0 8.0 0.01 0.03 0.01 96 1018.2
20180924003503 36 127 4.0 7.0 0.01 0.03 0.01 96 1018.2
20180924002000 36 123 5.0 8.0 0.00 0.02 0.00 96 1018.5
20180924000458 36 113 3.0 4.0 0.00 0.02 0.00 96 1018.7
20180923235000 35 148 2.0 3.0 0.00 0.02 0.02 96 1018.9
20180923233458 34 248 2.0 5.0 0.00 0.02 0.02 95 1019.0
20180923231955 34 140 4.0 7.0 0.00 0.02 0.02 95 1018.9
20180923230453 35 109 3.0 7.0 0.00 0.02 0.02 95 1018.9
20180923225000 35 133 3.0 7.0 0.00 0.02 0.02 95 1019.2
20180923223457 35 128 5.0 7.0 0.00 0.02 0.02 95 1019.3
20180923221953 35 145 3.0 6.0 0.00 0.02 0.02 94 1019.5
20180923220455 35 153 4.0 7.0 0.00 0.02 0.02 93 1019.5
20180923214956 35 138 5.0 7.0 0.00 0.02 0.02 93 1019.7
20180923213454 36 123 6.0 8.0 0.00 0.02 0.02 93 1019.7
20180923211950 37 239 2.0 7.0 0.00 0.02 0.02 94 1019.9
20180923210451 36 187 9.0 11.0 0.00 0.02 0.02 94 1019.9
20180923204953 35 153 6.0 9.0 0.00 0.02 0.02 92 1019.9
20180923203450 35 146 7.0 10.0 0.00 0.02 0.02 91 1019.9
20180923201948 36 136 6.0 9.0 0.00 0.02 0.02 90 1019.9
20180923200448 37 130 7.0 9.0 0.00 0.02 0.02 89 1019.9
20180923194951 37 153 6.0 10.0 0.00 0.02 0.02 90 1019.9
20180923193447 37 130 5.0 8.0 0.00 0.02 0.02 89 1019.7
20180923191951 38 133 6.0 8.0 0.00 0.02 0.02 89 1019.7
20180923190445 39 142 5.0 7.0 0.00 0.02 0.02 89 1019.7
20180923184946 40 174 4.0 6.0 0.00 0.02 0.02 88 1019.5
20180923183446 40 183 3.0 10.0 0.00 0.02 0.02 87 1019.5
20180923181944 41 194 5.0 10.0 0.00 0.02 0.02 89 1019.5
20180923180446 41 208 7.0 11.0 0.00 0.02 0.02 90 1019.2
20180923174944 42 177 7.0 13.0 0.00 0.02 0.02 89 1019.3
20180923173442 42 196 8.0 11.0 0.01 0.02 0.02 88 1019.3
20180923171945 43 161 3.0 8.0 0.02 0.02 0.02 89 1019.3
20180923170440 43 217 1.0 4.0 0.02 0.02 0.02 88 1019.3
20180923164941 42 266 0.0 5.0 0.02 0.02 0.02 90 1019.4
20180923163440 41 287 3.0 14.0 0.01 0.02 0.02 88 1019.4
20180923161942 44 182 6.0 9.0 0.00 0.01 0.01 78 1019.2
20180923160441 45 191 5.0 8.0 0.00 0.01 0.01 82 1019.3
20180923154935 43 142 7.0 9.0 0.00 0.01 0.01 83 1019.4
20180923153432 42 162 3.0 6.0 0.00 0.01 0.01 87 1019.5
20180923151933 40 349 0.0 3.0 0.00 0.01 0.01 87 1019.7
20180923150432 40 344 3.0 9.0 0.00 0.01 0.01 91 1019.7
20180923144928 40 283 10.0 16.0 0.00 0.01 0.01 89 1019.9
20180923143427 43 168 9.0 13.0 0.00 0.01 0.01 87 1019.7
20180923141929 42 146 7.0 10.0 0.00 0.01 0.01 86 1019.6
20180923140425 41 112 7.0 11.0 0.00 0.01 0.01 87 1019.6
20180923134920 40 129 7.0 11.0 0.00 0.01 0.01 89 1019.8
20180923133413 39 122 4.0 7.0 0.00 0.01 0.01 88 1019.9
20180923131916 38 88 3.0 6.0 0.00 0.01 0.01 89 1019.9
20180923130413 38 111 3.0 7.0 0.01 0.01 0.01 89 1019.9
20180923124909 37 79 2.0 5.0 0.01 0.01 0.01 91 1019.9
20180923123408 36 265 1.0 2.0 0.01 0.01 0.01 92 1019.8
20180923121907 35 265 1.0 6.0 0.01 0.01 0.01 89 1019.9
20180923120410 36 259 2.0 5.0 0.00 0.00 0.00 86 1019.8
20180923114906 37 165 5.0 6.0 0.00 0.00 0.00 85 1019.6
20180923113401 37 152 4.0 7.0 0.00 0.00 0.00 85 1019.6
20180923111903 37 171 5.0 8.0 0.00 0.00 0.00 87 1019.4
20180923110357 36 153 5.0 8.0 0.00 0.00 0.00 88 1019.3
20180923104858 36 145 5.0 7.0 0.00 0.00 0.00 90 1019.4
20180923103353 35 98 2.0 6.0 0.00 0.00 0.00 92 1019.3
20180923101850 34 159 0.0 0.0 0.00 0.00 0.00 93 1019.2